sensor_id;sensor_type;location;lat;lon;timestamp;temperature;humidity
29731;DHT22;16639;51.488;0.152;2024-03-08T00:00:14;7.30;99.90
29731;DHT22;16639;51.488;0.152;2024-03-08T00:02:45;7.60;99.90
29731;DHT22;16639;51.488;0.152;2024-03-08T00:05:14;7.30;99.90
29731;DHT22;16639;51.488;0.152;2024-03-08T00:07:41;7.30;99.90
29731;DHT22;16639;51.488;0.152;2024-03-08T00:10:11;7.20;99.90
29731;DHT22;16639;51.488;0.152;2024-03-08T00:12:45;7.30;99.90
29731;DHT22;16639;51.488;0.152;2024-03-08T00:15:15;7.30;99.90
29731;DHT22;16639;51.488;0.152;2024-03-08T00:17:45;7.30;99.90
29731;DHT22;16639;51.488;0.152;2024-03-08T00:20:13;7.30;99.90
29731;DHT22;16639;51.488;0.152;2024-03-08T00:22:42;7.70;99.90
29731;DHT22;16639;51.488;0.152;2024-03-08T00:25:09;7.30;99.90
29731;DHT22;16639;51.488;0.152;2024-03-08T00:27:38;7.30;99.90
29731;DHT22;16639;51.488;0.152;2024-03-08T00:30:07;7.30;99.90
29731;DHT22;16639;51.488;0.152;2024-03-08T00:32:35;7.30;99.90
29731;DHT22;16639;51.488;0.152;2024-03-08T00:35:04;7.50;99.90
29731;DHT22;16639;51.488;0.152;2024-03-08T00:37:35;7.40;99.90
29731;DHT22;16639;51.488;0.152;2024-03-08T00:40:03;7.40;99.90
29731;DHT22;16639;51.488;0.152;2024-03-08T00:42:31;7.40;99.90
29731;DHT22;16639;51.488;0.152;2024-03-08T00:44:58;7.40;99.90
29731;DHT22;16639;51.488;0.152;2024-03-08T00:47:26;7.40;99.90
29731;DHT22;16639;51.488;0.152;2024-03-08T00:49:54;7.30;99.90
29731;DHT22;16639;51.488;0.152;2024-03-08T00:52:24;7.40;99.90
29731;DHT22;16639;51.488;0.152;2024-03-08T00:54:51;7.30;99.90
29731;DHT22;16639;51.488;0.152;2024-03-08T00:57:18;7.40;99.90
29731;DHT22;16639;51.488;0.152;2024-03-08T00:59:46;7.30;99.90
29731;DHT22;16639;51.488;0.152;2024-03-08T01:02:14;7.30;99.90
29731;DHT22;16639;51.488;0.152;2024-03-08T01:04:41;7.30;99.90
29731;DHT22;16639;51.488;0.152;2024-03-08T01:07:08;7.30;99.90
29731;DHT22;16639;51.488;0.152;2024-03-08T01:09:36;7.30;99.90
29731;DHT22;16639;51.488;0.152;2024-03-08T01:12:03;7.30;99.90
29731;DHT22;16639;51.488;0.152;2024-03-08T01:14:32;7.20;99.90
29731;DHT22;16639;51.488;0.152;2024-03-08T01:17:00;7.20;99.90
29731;DHT22;16639;51.488;0.152;2024-03-08T01:19:27;7.20;99.90
29731;DHT22;16639;51.488;0.152;2024-03-08T01:21:55;7.20;99.90
29731;DHT22;16639;51.488;0.152;2024-03-08T01:24:23;7.20;99.90
29731;DHT22;16639;51.488;0.152;2024-03-08T01:26:52;7.20;99.90
29731;DHT22;16639;51.488;0.152;2024-03-08T01:29:19;7.20;99.90
29731;DHT22;16639;51.488;0.152;2024-03-08T01:31:47;7.10;99.90
29731;DHT22;16639;51.488;0.152;2024-03-08T01:34:14;7.20;99.90
29731;DHT22;16639;51.488;0.152;2024-03-08T01:36:42;7.20;99.90
29731;DHT22;16639;51.488;0.152;2024-03-08T01:39:09;7.20;99.90
29731;DHT22;16639;51.488;0.152;2024-03-08T01:41:37;7.20;99.90
29731;DHT22;16639;51.488;0.152;2024-03-08T01:44:04;7.20;99.90
29731;DHT22;16639;51.488;0.152;2024-03-08T01:46:35;7.10;99.90
29731;DHT22;16639;51.488;0.152;2024-03-08T01:49:03;7.20;99.90
29731;DHT22;16639;51.488;0.152;2024-03-08T01:51:30;7.20;99.90
29731;DHT22;16639;51.488;0.152;2024-03-08T01:53:59;7.20;99.90
29731;DHT22;16639;51.488;0.152;2024-03-08T01:56:29;7.20;99.90
29731;DHT22;16639;51.488;0.152;2024-03-08T01:58:59;7.20;99.90
29731;DHT22;16639;51.488;0.152;2024-03-08T02:01:27;7.20;99.90
29731;DHT22;16639;51.488;0.152;2024-03-08T02:03:55;7.10;99.90
29731;DHT22;16639;51.488;0.152;2024-03-08T02:06:23;7.10;99.90
29731;DHT22;16639;51.488;0.152;2024-03-08T02:08:50;7.10;99.90
29731;DHT22;16639;51.488;0.152;2024-03-08T02:11:18;7.00;99.90
29731;DHT22;16639;51.488;0.152;2024-03-08T02:13:48;7.10;99.90
29731;DHT22;16639;51.488;0.152;2024-03-08T02:16:21;7.00;99.90
29731;DHT22;16639;51.488;0.152;2024-03-08T02:18:48;7.00;99.90
29731;DHT22;16639;51.488;0.152;2024-03-08T02:21:17;7.00;99.90
29731;DHT22;16639;51.488;0.152;2024-03-08T02:23:45;7.00;99.90
29731;DHT22;16639;51.488;0.152;2024-03-08T02:26:13;7.00;99.90
29731;DHT22;16639;51.488;0.152;2024-03-08T02:28:40;7.00;99.90
29731;DHT22;16639;51.488;0.152;2024-03-08T02:31:10;6.80;99.90
29731;DHT22;16639;51.488;0.152;2024-03-08T02:33:37;7.30;99.90
29731;DHT22;16639;51.488;0.152;2024-03-08T02:36:05;7.10;99.90
29731;DHT22;16639;51.488;0.152;2024-03-08T02:38:33;7.10;99.90
29731;DHT22;16639;51.488;0.152;2024-03-08T02:41:01;7.50;99.90
29731;DHT22;16639;51.488;0.152;2024-03-08T02:43:28;7.40;99.90
29731;DHT22;16639;51.488;0.152;2024-03-08T02:45:55;7.10;99.90
29731;DHT22;16639;51.488;0.152;2024-03-08T02:48:23;7.10;99.90
29731;DHT22;16639;51.488;0.152;2024-03-08T02:50:51;7.10;99.90
29731;DHT22;16639;51.488;0.152;2024-03-08T02:53:19;7.10;99.90
29731;DHT22;16639;51.488;0.152;2024-03-08T02:55:47;7.10;99.90
29731;DHT22;16639;51.488;0.152;2024-03-08T02:58:14;7.10;99.90
29731;DHT22;16639;51.488;0.152;2024-03-08T03:00:42;7.10;99.90
29731;DHT22;16639;51.488;0.152;2024-03-08T03:03:12;7.10;99.90
29731;DHT22;16639;51.488;0.152;2024-03-08T03:05:39;7.10;99.90
29731;DHT22;16639;51.488;0.152;2024-03-08T03:08:15;7.10;99.90
29731;DHT22;16639;51.488;0.152;2024-03-08T03:10:44;7.20;99.90
29731;DHT22;16639;51.488;0.152;2024-03-08T03:13:13;7.10;99.90
29731;DHT22;16639;51.488;0.152;2024-03-08T03:15:41;7.10;99.90
29731;DHT22;16639;51.488;0.152;2024-03-08T03:18:09;7.10;99.90
29731;DHT22;16639;51.488;0.152;2024-03-08T03:20:37;7.10;99.90
29731;DHT22;16639;51.488;0.152;2024-03-08T03:23:09;7.00;99.90
29731;DHT22;16639;51.488;0.152;2024-03-08T03:25:36;7.00;99.90
29731;DHT22;16639;51.488;0.152;2024-03-08T03:28:06;7.00;99.90
29731;DHT22;16639;51.488;0.152;2024-03-08T03:30:35;7.00;99.90
29731;DHT22;16639;51.488;0.152;2024-03-08T03:33:03;7.00;99.90
29731;DHT22;16639;51.488;0.152;2024-03-08T03:35:37;7.00;99.90
29731;DHT22;16639;51.488;0.152;2024-03-08T03:38:05;7.10;99.90
29731;DHT22;16639;51.488;0.152;2024-03-08T03:40:37;7.10;99.90
29731;DHT22;16639;51.488;0.152;2024-03-08T03:43:04;7.10;99.90
29731;DHT22;16639;51.488;0.152;2024-03-08T03:45:32;7.10;99.90
29731;DHT22;16639;51.488;0.152;2024-03-08T03:48:05;7.10;99.90
29731;DHT22;16639;51.488;0.152;2024-03-08T03:50:38;7.20;99.90
29731;DHT22;16639;51.488;0.152;2024-03-08T03:53:07;7.20;99.90
29731;DHT22;16639;51.488;0.152;2024-03-08T03:55:37;7.20;99.90
29731;DHT22;16639;51.488;0.152;2024-03-08T03:58:08;7.10;99.90
29731;DHT22;16639;51.488;0.152;2024-03-08T04:00:38;7.10;99.90
29731;DHT22;16639;51.488;0.152;2024-03-08T04:03:06;7.10;99.90
29731;DHT22;16639;51.488;0.152;2024-03-08T04:05:34;7.00;99.90
29731;DHT22;16639;51.488;0.152;2024-03-08T04:08:02;7.00;99.90
29731;DHT22;16639;51.488;0.152;2024-03-08T04:10:30;6.90;99.90
29731;DHT22;16639;51.488;0.152;2024-03-08T04:12:57;6.90;99.90
29731;DHT22;16639;51.488;0.152;2024-03-08T04:15:25;6.90;99.90
29731;DHT22;16639;51.488;0.152;2024-03-08T04:17:52;6.80;99.90
29731;DHT22;16639;51.488;0.152;2024-03-08T04:20:20;6.90;99.90
29731;DHT22;16639;51.488;0.152;2024-03-08T04:22:48;6.90;99.90
29731;DHT22;16639;51.488;0.152;2024-03-08T04:25:17;6.80;99.90
29731;DHT22;16639;51.488;0.152;2024-03-08T04:27:44;6.90;99.90
29731;DHT22;16639;51.488;0.152;2024-03-08T04:30:12;6.80;99.90
29731;DHT22;16639;51.488;0.152;2024-03-08T04:32:40;6.60;99.90
29731;DHT22;16639;51.488;0.152;2024-03-08T04:35:09;6.60;99.90
29731;DHT22;16639;51.488;0.152;2024-03-08T04:37:36;7.00;99.90
29731;DHT22;16639;51.488;0.152;2024-03-08T04:40:04;6.50;99.90
29731;DHT22;16639;51.488;0.152;2024-03-08T04:42:33;6.50;99.90
29731;DHT22;16639;51.488;0.152;2024-03-08T04:45:00;6.40;99.90
29731;DHT22;16639;51.488;0.152;2024-03-08T04:47:28;6.40;99.90
29731;DHT22;16639;51.488;0.152;2024-03-08T04:49:55;6.40;99.90
29731;DHT22;16639;51.488;0.152;2024-03-08T04:52:24;6.30;99.90
29731;DHT22;16639;51.488;0.152;2024-03-08T04:54:51;6.30;99.90
29731;DHT22;16639;51.488;0.152;2024-03-08T04:57:18;6.30;99.90
29731;DHT22;16639;51.488;0.152;2024-03-08T04:59:46;6.30;99.90
29731;DHT22;16639;51.488;0.152;2024-03-08T05:02:14;6.30;99.90
29731;DHT22;16639;51.488;0.152;2024-03-08T05:04:42;6.30;99.90
29731;DHT22;16639;51.488;0.152;2024-03-08T05:07:10;6.30;99.90
29731;DHT22;16639;51.488;0.152;2024-03-08T05:09:37;6.30;99.90
29731;DHT22;16639;51.488;0.152;2024-03-08T05:12:05;6.30;99.90
29731;DHT22;16639;51.488;0.152;2024-03-08T05:14:33;6.40;99.90
29731;DHT22;16639;51.488;0.152;2024-03-08T05:17:02;6.20;99.90
29731;DHT22;16639;51.488;0.152;2024-03-08T05:19:29;6.20;99.90
29731;DHT22;16639;51.488;0.152;2024-03-08T05:22:01;6.20;99.90
29731;DHT22;16639;51.488;0.152;2024-03-08T05:24:29;6.10;99.90
29731;DHT22;16639;51.488;0.152;2024-03-08T05:26:57;6.10;99.90
29731;DHT22;16639;51.488;0.152;2024-03-08T05:29:27;7.20;99.90
29731;DHT22;16639;51.488;0.152;2024-03-08T05:31:56;6.30;99.90
29731;DHT22;16639;51.488;0.152;2024-03-08T05:34:25;6.30;99.90
29731;DHT22;16639;51.488;0.152;2024-03-08T05:36:55;6.40;99.90
29731;DHT22;16639;51.488;0.152;2024-03-08T05:39:23;6.40;99.90
29731;DHT22;16639;51.488;0.152;2024-03-08T05:41:50;6.50;99.90
29731;DHT22;16639;51.488;0.152;2024-03-08T05:44:18;6.40;99.90
29731;DHT22;16639;51.488;0.152;2024-03-08T05:46:46;6.50;99.90
29731;DHT22;16639;51.488;0.152;2024-03-08T05:49:14;6.60;99.90
29731;DHT22;16639;51.488;0.152;2024-03-08T05:51:42;6.60;99.90
29731;DHT22;16639;51.488;0.152;2024-03-08T05:54:11;6.60;99.90
29731;DHT22;16639;51.488;0.152;2024-03-08T05:56:43;6.60;99.90
29731;DHT22;16639;51.488;0.152;2024-03-08T05:59:12;6.70;99.90
29731;DHT22;16639;51.488;0.152;2024-03-08T06:01:40;6.70;99.90
29731;DHT22;16639;51.488;0.152;2024-03-08T06:04:09;6.70;99.90
29731;DHT22;16639;51.488;0.152;2024-03-08T06:06:39;6.80;99.90
29731;DHT22;16639;51.488;0.152;2024-03-08T06:09:08;6.80;99.90
29731;DHT22;16639;51.488;0.152;2024-03-08T06:11:43;6.70;99.90
29731;DHT22;16639;51.488;0.152;2024-03-08T06:14:10;6.80;99.90
29731;DHT22;16639;51.488;0.152;2024-03-08T06:16:38;6.90;99.90
29731;DHT22;16639;51.488;0.152;2024-03-08T06:19:06;6.90;99.90
29731;DHT22;16639;51.488;0.152;2024-03-08T06:21:33;6.90;99.90
29731;DHT22;16639;51.488;0.152;2024-03-08T06:24:01;7.00;99.90
29731;DHT22;16639;51.488;0.152;2024-03-08T06:26:28;6.90;99.90
29731;DHT22;16639;51.488;0.152;2024-03-08T06:28:57;6.90;99.90
29731;DHT22;16639;51.488;0.152;2024-03-08T06:31:25;6.90;99.90
29731;DHT22;16639;51.488;0.152;2024-03-08T06:33:53;6.90;99.90
29731;DHT22;16639;51.488;0.152;2024-03-08T06:36:25;6.90;99.90
29731;DHT22;16639;51.488;0.152;2024-03-08T06:38:52;6.80;99.90
29731;DHT22;16639;51.488;0.152;2024-03-08T06:41:21;6.90;99.90
29731;DHT22;16639;51.488;0.152;2024-03-08T06:43:48;6.50;99.90
29731;DHT22;16639;51.488;0.152;2024-03-08T06:46:19;6.90;99.90
29731;DHT22;16639;51.488;0.152;2024-03-08T06:48:48;6.90;99.90
29731;DHT22;16639;51.488;0.152;2024-03-08T06:51:17;6.90;99.90
29731;DHT22;16639;51.488;0.152;2024-03-08T06:53:45;7.30;99.90
29731;DHT22;16639;51.488;0.152;2024-03-08T06:56:13;7.00;99.90
29731;DHT22;16639;51.488;0.152;2024-03-08T06:58:40;7.00;99.90
29731;DHT22;16639;51.488;0.152;2024-03-08T07:01:09;7.00;99.90
29731;DHT22;16639;51.488;0.152;2024-03-08T07:03:42;7.10;99.90
29731;DHT22;16639;51.488;0.152;2024-03-08T07:06:11;7.00;99.90
29731;DHT22;16639;51.488;0.152;2024-03-08T07:08:39;5.60;99.90
29731;DHT22;16639;51.488;0.152;2024-03-08T07:11:07;7.50;99.90
29731;DHT22;16639;51.488;0.152;2024-03-08T07:13:34;7.00;99.90
29731;DHT22;16639;51.488;0.152;2024-03-08T07:16:02;7.10;99.90
29731;DHT22;16639;51.488;0.152;2024-03-08T07:18:29;7.10;99.90
29731;DHT22;16639;51.488;0.152;2024-03-08T07:20:58;7.10;99.90
29731;DHT22;16639;51.488;0.152;2024-03-08T07:23:26;7.10;99.90
29731;DHT22;16639;51.488;0.152;2024-03-08T07:26:18;7.10;99.90
29731;DHT22;16639;51.488;0.152;2024-03-08T07:28:46;7.20;99.90
29731;DHT22;16639;51.488;0.152;2024-03-08T07:31:14;7.20;99.90
29731;DHT22;16639;51.488;0.152;2024-03-08T07:33:54;7.20;99.90
29731;DHT22;16639;51.488;0.152;2024-03-08T07:36:21;7.20;99.90
29731;DHT22;16639;51.488;0.152;2024-03-08T07:38:51;7.30;99.90
29731;DHT22;16639;51.488;0.152;2024-03-08T07:41:19;7.30;99.90
29731;DHT22;16639;51.488;0.152;2024-03-08T07:43:47;7.30;99.90
29731;DHT22;16639;51.488;0.152;2024-03-08T07:46:16;7.50;99.90
29731;DHT22;16639;51.488;0.152;2024-03-08T07:48:45;7.40;99.90
29731;DHT22;16639;51.488;0.152;2024-03-08T07:51:16;7.40;99.90
29731;DHT22;16639;51.488;0.152;2024-03-08T07:53:45;6.10;99.90
29731;DHT22;16639;51.488;0.152;2024-03-08T07:56:12;7.50;99.90
29731;DHT22;16639;51.488;0.152;2024-03-08T07:58:40;7.50;99.90
29731;DHT22;16639;51.488;0.152;2024-03-08T08:01:08;7.50;99.90
29731;DHT22;16639;51.488;0.152;2024-03-08T08:03:43;7.50;99.90
29731;DHT22;16639;51.488;0.152;2024-03-08T08:06:11;7.40;99.90
29731;DHT22;16639;51.488;0.152;2024-03-08T08:08:43;7.40;99.90
29731;DHT22;16639;51.488;0.152;2024-03-08T08:11:11;7.50;99.90
29731;DHT22;16639;51.488;0.152;2024-03-08T08:13:43;7.50;99.90
29731;DHT22;16639;51.488;0.152;2024-03-08T08:16:11;7.50;99.90
29731;DHT22;16639;51.488;0.152;2024-03-08T08:18:40;7.50;99.90
29731;DHT22;16639;51.488;0.152;2024-03-08T08:21:08;7.50;99.90
29731;DHT22;16639;51.488;0.152;2024-03-08T08:23:35;7.50;99.90
29731;DHT22;16639;51.488;0.152;2024-03-08T08:26:03;7.50;99.90
29731;DHT22;16639;51.488;0.152;2024-03-08T08:28:30;7.50;99.90
29731;DHT22;16639;51.488;0.152;2024-03-08T08:30:58;7.60;99.90
29731;DHT22;16639;51.488;0.152;2024-03-08T08:33:26;7.60;99.90
29731;DHT22;16639;51.488;0.152;2024-03-08T08:35:54;7.60;99.90
29731;DHT22;16639;51.488;0.152;2024-03-08T08:38:22;7.60;99.90
29731;DHT22;16639;51.488;0.152;2024-03-08T08:40:50;7.60;99.90
29731;DHT22;16639;51.488;0.152;2024-03-08T08:43:17;7.70;99.90
29731;DHT22;16639;51.488;0.152;2024-03-08T08:45:46;7.70;99.90
29731;DHT22;16639;51.488;0.152;2024-03-08T08:48:17;7.40;99.90
29731;DHT22;16639;51.488;0.152;2024-03-08T08:50:44;8.20;99.90
29731;DHT22;16639;51.488;0.152;2024-03-08T08:53:12;7.20;99.90
29731;DHT22;16639;51.488;0.152;2024-03-08T08:55:41;7.80;99.90
29731;DHT22;16639;51.488;0.152;2024-03-08T08:58:08;7.90;99.90
29731;DHT22;16639;51.488;0.152;2024-03-08T09:00:36;7.90;99.90
29731;DHT22;16639;51.488;0.152;2024-03-08T09:03:03;8.00;99.90
29731;DHT22;16639;51.488;0.152;2024-03-08T09:05:31;8.00;99.90
29731;DHT22;16639;51.488;0.152;2024-03-08T09:08:00;8.00;99.90
29731;DHT22;16639;51.488;0.152;2024-03-08T09:10:28;8.10;99.90
29731;DHT22;16639;51.488;0.152;2024-03-08T09:12:57;8.20;99.90
29731;DHT22;16639;51.488;0.152;2024-03-08T09:15:26;8.30;99.90
29731;DHT22;16639;51.488;0.152;2024-03-08T09:17:56;8.40;99.90
29731;DHT22;16639;51.488;0.152;2024-03-08T09:20:24;8.50;99.90
29731;DHT22;16639;51.488;0.152;2024-03-08T09:22:52;8.50;99.90
29731;DHT22;16639;51.488;0.152;2024-03-08T09:25:20;8.60;99.90
29731;DHT22;16639;51.488;0.152;2024-03-08T09:27:48;8.70;99.90
29731;DHT22;16639;51.488;0.152;2024-03-08T09:30:15;8.80;99.90
29731;DHT22;16639;51.488;0.152;2024-03-08T09:32:42;8.80;99.90
29731;DHT22;16639;51.488;0.152;2024-03-08T09:35:11;8.80;99.90
29731;DHT22;16639;51.488;0.152;2024-03-08T09:37:38;8.80;99.90
29731;DHT22;16639;51.488;0.152;2024-03-08T09:40:06;8.80;99.90
29731;DHT22;16639;51.488;0.152;2024-03-08T09:42:37;8.90;99.90
29731;DHT22;16639;51.488;0.152;2024-03-08T09:45:10;8.80;99.90
29731;DHT22;16639;51.488;0.152;2024-03-08T09:47:44;8.90;99.90
29731;DHT22;16639;51.488;0.152;2024-03-08T09:50:11;9.00;99.90
29731;DHT22;16639;51.488;0.152;2024-03-08T09:52:43;8.90;99.90
29731;DHT22;16639;51.488;0.152;2024-03-08T09:55:13;9.00;99.90
29731;DHT22;16639;51.488;0.152;2024-03-08T09:57:41;9.10;99.90
29731;DHT22;16639;51.488;0.152;2024-03-08T10:00:21;9.10;99.90
29731;DHT22;16639;51.488;0.152;2024-03-08T10:02:51;9.00;99.90
29731;DHT22;16639;51.488;0.152;2024-03-08T10:05:22;9.50;99.90
29731;DHT22;16639;51.488;0.152;2024-03-08T10:07:50;8.10;99.90
29731;DHT22;16639;51.488;0.152;2024-03-08T10:10:18;9.10;99.90
29731;DHT22;16639;51.488;0.152;2024-03-08T10:12:46;9.10;99.90
29731;DHT22;16639;51.488;0.152;2024-03-08T10:15:15;9.60;99.90
29731;DHT22;16639;51.488;0.152;2024-03-08T10:17:44;9.10;99.90
29731;DHT22;16639;51.488;0.152;2024-03-08T10:20:16;9.20;99.90
29731;DHT22;16639;51.488;0.152;2024-03-08T10:22:44;9.10;99.90
29731;DHT22;16639;51.488;0.152;2024-03-08T10:25:29;9.40;99.90
29731;DHT22;16639;51.488;0.152;2024-03-08T10:27:57;9.20;99.90
29731;DHT22;16639;51.488;0.152;2024-03-08T10:30:25;9.20;99.90
29731;DHT22;16639;51.488;0.152;2024-03-08T10:32:52;9.10;99.90
29731;DHT22;16639;51.488;0.152;2024-03-08T10:35:19;9.10;99.90
29731;DHT22;16639;51.488;0.152;2024-03-08T10:37:49;9.10;99.90
29731;DHT22;16639;51.488;0.152;2024-03-08T10:40:25;9.20;99.90
29731;DHT22;16639;51.488;0.152;2024-03-08T10:42:55;9.20;99.90
29731;DHT22;16639;51.488;0.152;2024-03-08T10:45:38;9.20;99.90
29731;DHT22;16639;51.488;0.152;2024-03-08T10:48:29;9.20;99.90
29731;DHT22;16639;51.488;0.152;2024-03-08T10:51:05;9.70;99.90
29731;DHT22;16639;51.488;0.152;2024-03-08T10:53:36;9.10;99.90
29731;DHT22;16639;51.488;0.152;2024-03-08T10:56:06;9.00;99.90
29731;DHT22;16639;51.488;0.152;2024-03-08T10:58:36;9.00;99.90
29731;DHT22;16639;51.488;0.152;2024-03-08T11:01:04;8.90;99.90
29731;DHT22;16639;51.488;0.152;2024-03-08T11:03:53;8.90;99.90
29731;DHT22;16639;51.488;0.152;2024-03-08T11:06:31;8.80;99.90
29731;DHT22;16639;51.488;0.152;2024-03-08T11:09:18;8.80;99.90
29731;DHT22;16639;51.488;0.152;2024-03-08T11:14:59;8.80;99.90
29731;DHT22;16639;51.488;0.152;2024-03-08T11:19:56;8.80;99.90
29731;DHT22;16639;51.488;0.152;2024-03-08T11:22:29;8.80;99.90
29731;DHT22;16639;51.488;0.152;2024-03-08T11:25:05;8.80;99.90
29731;DHT22;16639;51.488;0.152;2024-03-08T11:27:38;8.80;99.90
29731;DHT22;16639;51.488;0.152;2024-03-08T11:30:07;8.80;99.90
29731;DHT22;16639;51.488;0.152;2024-03-08T11:32:45;8.80;99.90
29731;DHT22;16639;51.488;0.152;2024-03-08T11:35:20;8.90;99.90
29731;DHT22;16639;51.488;0.152;2024-03-08T11:37:48;8.80;99.90
29731;DHT22;16639;51.488;0.152;2024-03-08T11:40:16;8.80;99.90
29731;DHT22;16639;51.488;0.152;2024-03-08T11:42:45;8.60;99.90
29731;DHT22;16639;51.488;0.152;2024-03-08T11:45:16;8.80;99.90
29731;DHT22;16639;51.488;0.152;2024-03-08T11:47:45;8.80;99.90
29731;DHT22;16639;51.488;0.152;2024-03-08T11:50:14;8.20;99.90
29731;DHT22;16639;51.488;0.152;2024-03-08T11:52:44;8.80;99.90
29731;DHT22;16639;51.488;0.152;2024-03-08T11:55:11;8.90;99.90
29731;DHT22;16639;51.488;0.152;2024-03-08T11:57:40;8.90;99.90
29731;DHT22;16639;51.488;0.152;2024-03-08T12:00:16;9.00;99.90
29731;DHT22;16639;51.488;0.152;2024-03-08T12:03:08;9.00;99.90
29731;DHT22;16639;51.488;0.152;2024-03-08T12:05:37;9.00;99.90
29731;DHT22;16639;51.488;0.152;2024-03-08T12:08:06;9.10;99.90
29731;DHT22;16639;51.488;0.152;2024-03-08T12:10:40;9.20;99.90
29731;DHT22;16639;51.488;0.152;2024-03-08T12:13:07;9.30;99.90
29731;DHT22;16639;51.488;0.152;2024-03-08T12:15:40;9.40;99.90
29731;DHT22;16639;51.488;0.152;2024-03-08T12:18:08;9.50;99.90
29731;DHT22;16639;51.488;0.152;2024-03-08T12:20:37;9.50;99.90
29731;DHT22;16639;51.488;0.152;2024-03-08T12:23:13;9.50;99.90
29731;DHT22;16639;51.488;0.152;2024-03-08T12:25:41;9.40;99.90
29731;DHT22;16639;51.488;0.152;2024-03-08T12:28:12;9.90;99.90
29731;DHT22;16639;51.488;0.152;2024-03-08T12:30:50;9.60;99.90
29731;DHT22;16639;51.488;0.152;2024-03-08T12:33:20;9.70;99.90
29731;DHT22;16639;51.488;0.152;2024-03-08T12:35:53;10.70;99.90
29731;DHT22;16639;51.488;0.152;2024-03-08T12:38:22;9.60;99.90
29731;DHT22;16639;51.488;0.152;2024-03-08T12:41:00;9.60;99.90
29731;DHT22;16639;51.488;0.152;2024-03-08T12:43:29;9.70;99.90
29731;DHT22;16639;51.488;0.152;2024-03-08T12:46:04;9.80;99.90
29731;DHT22;16639;51.488;0.152;2024-03-08T12:48:52;9.90;99.90
29731;DHT22;16639;51.488;0.152;2024-03-08T12:51:22;10.00;99.90
29731;DHT22;16639;51.488;0.152;2024-03-08T12:53:49;10.00;99.90
29731;DHT22;16639;51.488;0.152;2024-03-08T12:56:34;10.10;99.90
29731;DHT22;16639;51.488;0.152;2024-03-08T12:59:02;10.20;99.90
29731;DHT22;16639;51.488;0.152;2024-03-08T13:01:30;10.20;99.90
29731;DHT22;16639;51.488;0.152;2024-03-08T13:04:01;10.20;99.90
29731;DHT22;16639;51.488;0.152;2024-03-08T13:06:30;10.30;99.90
29731;DHT22;16639;51.488;0.152;2024-03-08T13:08:59;10.40;99.90
29731;DHT22;16639;51.488;0.152;2024-03-08T13:11:32;10.40;99.90
29731;DHT22;16639;51.488;0.152;2024-03-08T13:14:04;10.30;99.90
29731;DHT22;16639;51.488;0.152;2024-03-08T13:16:35;10.30;99.90
29731;DHT22;16639;51.488;0.152;2024-03-08T13:19:02;10.40;99.90
29731;DHT22;16639;51.488;0.152;2024-03-08T13:21:30;10.30;99.90
29731;DHT22;16639;51.488;0.152;2024-03-08T13:23:57;10.30;99.90
29731;DHT22;16639;51.488;0.152;2024-03-08T13:26:27;10.30;99.90
29731;DHT22;16639;51.488;0.152;2024-03-08T13:29:00;10.30;99.90
29731;DHT22;16639;51.488;0.152;2024-03-08T13:31:28;10.30;99.90
29731;DHT22;16639;51.488;0.152;2024-03-08T13:33:55;10.20;99.90
29731;DHT22;16639;51.488;0.152;2024-03-08T13:36:26;10.20;99.90
29731;DHT22;16639;51.488;0.152;2024-03-08T13:39:00;10.20;99.90
29731;DHT22;16639;51.488;0.152;2024-03-08T13:41:27;10.10;99.90
29731;DHT22;16639;51.488;0.152;2024-03-08T13:43:58;10.10;99.90
29731;DHT22;16639;51.488;0.152;2024-03-08T13:46:26;10.10;99.90
29731;DHT22;16639;51.488;0.152;2024-03-08T13:48:54;10.10;99.90
29731;DHT22;16639;51.488;0.152;2024-03-08T13:51:21;11.40;99.90
29731;DHT22;16639;51.488;0.152;2024-03-08T13:53:50;10.10;99.90
29731;DHT22;16639;51.488;0.152;2024-03-08T13:56:17;10.10;99.90
29731;DHT22;16639;51.488;0.152;2024-03-08T13:58:44;10.00;99.90
29731;DHT22;16639;51.488;0.152;2024-03-08T14:01:12;10.00;99.90
29731;DHT22;16639;51.488;0.152;2024-03-08T14:03:40;8.60;99.90
29731;DHT22;16639;51.488;0.152;2024-03-08T14:06:10;10.10;99.90
29731;DHT22;16639;51.488;0.152;2024-03-08T14:08:51;10.10;99.90
29731;DHT22;16639;51.488;0.152;2024-03-08T14:11:20;10.10;99.90
29731;DHT22;16639;51.488;0.152;2024-03-08T14:13:48;10.20;99.90
29731;DHT22;16639;51.488;0.152;2024-03-08T14:16:16;10.10;99.90
29731;DHT22;16639;51.488;0.152;2024-03-08T14:18:44;10.20;99.90
29731;DHT22;16639;51.488;0.152;2024-03-08T14:21:11;10.30;99.90
29731;DHT22;16639;51.488;0.152;2024-03-08T14:23:41;10.30;99.90
29731;DHT22;16639;51.488;0.152;2024-03-08T14:26:10;10.30;99.90
29731;DHT22;16639;51.488;0.152;2024-03-08T14:28:38;10.30;99.90
29731;DHT22;16639;51.488;0.152;2024-03-08T14:31:06;10.30;99.90
29731;DHT22;16639;51.488;0.152;2024-03-08T14:33:38;10.20;99.90
29731;DHT22;16639;51.488;0.152;2024-03-08T14:36:06;10.20;99.90
29731;DHT22;16639;51.488;0.152;2024-03-08T14:38:33;10.20;99.90
29731;DHT22;16639;51.488;0.152;2024-03-08T14:41:02;10.10;99.90
29731;DHT22;16639;51.488;0.152;2024-03-08T14:43:31;10.10;99.90
29731;DHT22;16639;51.488;0.152;2024-03-08T14:45:59;10.10;99.90
29731;DHT22;16639;51.488;0.152;2024-03-08T14:48:27;10.10;99.90
29731;DHT22;16639;51.488;0.152;2024-03-08T14:50:54;10.10;99.90
29731;DHT22;16639;51.488;0.152;2024-03-08T14:53:21;10.10;99.90
29731;DHT22;16639;51.488;0.152;2024-03-08T14:55:49;10.10;99.90
29731;DHT22;16639;51.488;0.152;2024-03-08T14:58:16;10.00;99.90
29731;DHT22;16639;51.488;0.152;2024-03-08T15:00:44;10.10;99.90
29731;DHT22;16639;51.488;0.152;2024-03-08T15:03:17;10.00;99.90
29731;DHT22;16639;51.488;0.152;2024-03-08T15:05:50;10.00;99.90
29731;DHT22;16639;51.488;0.152;2024-03-08T15:08:18;10.10;99.90
29731;DHT22;16639;51.488;0.152;2024-03-08T15:10:50;9.90;99.90
29731;DHT22;16639;51.488;0.152;2024-03-08T15:13:22;9.70;99.90
29731;DHT22;16639;51.488;0.152;2024-03-08T15:15:51;9.80;99.90
29731;DHT22;16639;51.488;0.152;2024-03-08T15:18:23;9.70;99.90
29731;DHT22;16639;51.488;0.152;2024-03-08T15:20:58;9.70;99.90
29731;DHT22;16639;51.488;0.152;2024-03-08T15:23:26;9.60;99.90
29731;DHT22;16639;51.488;0.152;2024-03-08T15:25:53;9.60;99.90
29731;DHT22;16639;51.488;0.152;2024-03-08T15:28:21;9.60;99.90
29731;DHT22;16639;51.488;0.152;2024-03-08T15:30:54;9.50;99.90
29731;DHT22;16639;51.488;0.152;2024-03-08T15:33:23;9.50;99.90
29731;DHT22;16639;51.488;0.152;2024-03-08T15:35:54;9.50;99.90
29731;DHT22;16639;51.488;0.152;2024-03-08T15:38:27;9.50;99.90
29731;DHT22;16639;51.488;0.152;2024-03-08T15:40:55;9.50;99.90
29731;DHT22;16639;51.488;0.152;2024-03-08T15:43:23;9.40;99.90
29731;DHT22;16639;51.488;0.152;2024-03-08T15:45:52;9.40;99.90
29731;DHT22;16639;51.488;0.152;2024-03-08T15:48:22;9.40;99.90
29731;DHT22;16639;51.488;0.152;2024-03-08T15:50:49;9.40;99.90
29731;DHT22;16639;51.488;0.152;2024-03-08T15:53:18;9.30;99.90
29731;DHT22;16639;51.488;0.152;2024-03-08T15:55:46;9.30;99.90
29731;DHT22;16639;51.488;0.152;2024-03-08T15:58:14;9.40;99.90
29731;DHT22;16639;51.488;0.152;2024-03-08T16:00:42;9.40;99.90
29731;DHT22;16639;51.488;0.152;2024-03-08T16:03:14;9.40;99.90